Time;durP1;ratioP1;P1;durP2;ratioP2;P2;SDS_P1;SDS_P2;PMS_P1;PMS_P2;Temp;Humidity;BMP_temperature;BMP_pressure;BME280_temperature;BME280_humidity;BME280_pressure;Samples;Min_cycle;Max_cycle;Signal;HPM_P1;HPM_P2
2022/02/22 00:01:15;;;;;;;53.80;7.07;;;8.70;99.90;;;;;;5088276;28;20472;-68
2022/02/22 00:03:41;;;;;;;50.58;6.93;;;8.60;99.90;;;;;;5091334;28;20478;-67
2022/02/22 00:06:07;;;;;;;47.73;6.93;;;8.60;99.90;;;;;;5086890;28;20901;-67
2022/02/22 00:08:33;;;;;;;56.00;6.90;;;8.60;99.90;;;;;;5073083;28;20414;-68
2022/02/22 00:10:59;;;;;;;38.92;6.18;;;8.60;99.90;;;;;;5072073;28;20838;-66
2022/02/22 00:13:26;;;;;;;46.42;6.88;;;8.60;99.90;;;;;;5088154;28;20418;-66
2022/02/22 00:15:52;;;;;;;50.92;7.25;;;8.60;99.90;;;;;;5068989;28;20890;-66
2022/02/22 00:18:18;;;;;;;50.42;6.70;;;8.60;99.90;;;;;;5090175;28;20824;-67
2022/02/22 00:20:44;;;;;;;52.80;7.43;;;8.60;99.90;;;;;;5071154;28;20414;-66
2022/02/22 00:23:10;;;;;;;52.07;7.37;;;8.60;99.90;;;;;;5089567;28;20905;-68
2022/02/22 00:25:35;;;;;;;49.88;6.60;;;8.60;99.90;;;;;;5070730;28;20410;-67
2022/02/22 00:28:01;;;;;;;53.43;6.93;;;8.50;99.90;;;;;;5090761;28;20866;-67
2022/02/22 00:30:27;;;;;;;50.53;6.28;;;8.60;99.90;;;;;;5087170;28;20409;-68
2022/02/22 00:32:53;;;;;;;49.40;7.07;;;8.60;99.90;;;;;;5089171;28;20413;-68
2022/02/22 00:35:18;;;;;;;49.85;6.80;;;8.60;99.90;;;;;;5089080;28;20919;-67
2022/02/22 00:37:45;;;;;;;47.58;6.35;;;8.60;99.90;;;;;;5090318;28;20428;-66
2022/02/22 00:40:12;;;;;;;44.53;6.38;;;8.50;99.90;;;;;;5086045;28;20413;-67
2022/02/22 00:42:39;;;;;;;49.25;6.32;;;8.50;99.90;;;;;;5070009;28;20448;-66
2022/02/22 00:45:07;;;;;;;50.03;6.60;;;8.50;99.90;;;;;;5087495;28;20865;-67
2022/02/22 00:47:33;;;;;;;49.92;6.95;;;8.60;99.90;;;;;;5088273;28;20390;-68
2022/02/22 00:49:58;;;;;;;48.78;7.43;;;8.50;99.90;;;;;;5089364;28;20417;-67
2022/02/22 00:52:24;;;;;;;44.67;6.50;;;8.50;99.90;;;;;;5088046;28;20976;-67
2022/02/22 00:54:50;;;;;;;43.67;5.93;;;8.50;99.90;;;;;;5089672;28;20409;-68
2022/02/22 00:57:16;;;;;;;43.08;5.97;;;8.50;99.90;;;;;;5070103;28;20452;-67
2022/02/22 00:59:42;;;;;;;49.10;6.17;;;8.50;99.90;;;;;;5089285;28;20406;-67
2022/02/22 01:02:07;;;;;;;44.72;6.68;;;8.50;99.90;;;;;;5087385;28;20498;-69
2022/02/22 01:04:33;;;;;;;46.13;6.60;;;8.50;99.90;;;;;;5090106;28;20413;-68
2022/02/22 01:06:59;;;;;;;46.90;6.65;;;8.50;99.90;;;;;;5087442;28;20513;-67
2022/02/22 01:09:24;;;;;;;51.33;6.80;;;8.50;99.90;;;;;;5089491;28;20445;-67
2022/02/22 01:11:50;;;;;;;49.47;6.70;;;8.50;99.90;;;;;;5087133;28;20916;-67
2022/02/22 01:14:16;;;;;;;50.83;6.40;;;8.50;99.90;;;;;;5089727;28;20437;-66
2022/02/22 01:16:42;;;;;;;50.15;7.00;;;8.50;99.90;;;;;;5087112;28;20401;-67
2022/02/22 01:19:08;;;;;;;48.97;6.25;;;8.50;99.90;;;;;;5088296;28;20437;-67
2022/02/22 01:21:35;;;;;;;47.73;6.70;;;8.50;99.90;;;;;;5087049;28;20535;-65
2022/02/22 01:24:03;;;;;;;52.45;6.43;;;8.50;99.90;;;;;;5089591;28;20485;-66
2022/02/22 01:26:29;;;;;;;52.33;6.38;;;8.50;99.90;;;;;;5087898;28;20398;-67
2022/02/22 01:28:54;;;;;;;43.40;5.87;;;8.50;99.90;;;;;;5096825;28;20475;-67
2022/02/22 01:31:20;;;;;;;50.28;6.50;;;8.40;99.90;;;;;;5087255;28;20901;-68
2022/02/22 01:33:46;;;;;;;44.67;6.27;;;8.50;99.90;;;;;;5088541;28;20414;-67
2022/02/22 01:36:12;;;;;;;42.47;5.93;;;8.40;99.90;;;;;;5087241;28;20420;-66
2022/02/22 01:38:37;;;;;;;47.83;6.40;;;8.40;99.90;;;;;;5088001;28;20470;-66
2022/02/22 01:41:03;;;;;;;45.72;6.68;;;8.50;99.90;;;;;;5087432;28;21335;-65
2022/02/22 01:43:29;;;;;;;46.22;6.97;;;8.40;99.90;;;;;;5088071;28;20401;-67
2022/02/22 01:45:54;;;;;;;41.33;6.30;;;8.40;99.90;;;;;;5084661;28;20441;-66
2022/02/22 01:48:20;;;;;;;42.27;6.37;;;8.50;99.90;;;;;;5085968;28;20909;-67
2022/02/22 01:50:46;;;;;;;45.85;6.05;;;8.50;99.90;;;;;;5086866;28;20428;-66
2022/02/22 01:53:14;;;;;;;44.50;6.38;;;8.40;99.90;;;;;;5086377;28;20414;-68
2022/02/22 01:55:40;;;;;;;41.65;6.22;;;8.50;99.90;;;;;;5087058;28;20421;-66
2022/02/22 01:58:06;;;;;;;46.13;6.00;;;8.40;99.90;;;;;;5069567;28;20411;-66
2022/02/22 02:00:32;;;;;;;44.97;6.35;;;8.40;99.90;;;;;;5087265;28;20413;-68
2022/02/22 02:02:59;;;;;;;43.08;5.78;;;8.40;99.90;;;;;;5086624;28;20421;-67
2022/02/22 02:05:25;;;;;;;39.47;6.35;;;8.40;99.90;;;;;;5084483;28;20407;-66
2022/02/22 02:07:52;;;;;;;47.65;6.65;;;8.40;99.90;;;;;;5087705;28;20856;-67
2022/02/22 02:10:18;;;;;;;55.05;6.47;;;8.40;99.90;;;;;;5068306;28;20482;-67
2022/02/22 02:12:44;;;;;;;39.22;6.28;;;8.40;99.90;;;;;;5086703;28;20417;-66
2022/02/22 02:15:09;;;;;;;42.33;5.83;;;8.40;99.90;;;;;;5084925;28;20530;-67
2022/02/22 02:17:36;;;;;;;46.33;6.53;;;8.40;99.90;;;;;;5083794;28;20505;-67
2022/02/22 02:20:03;;;;;;;45.05;5.93;;;8.40;99.90;;;;;;5092163;28;20497;-67
2022/02/22 02:22:29;;;;;;;40.50;5.85;;;8.40;99.90;;;;;;5087728;28;20423;-66
2022/02/22 02:24:54;;;;;;;45.87;6.00;;;8.40;99.90;;;;;;5070710;28;20424;-66
2022/02/22 02:27:20;;;;;;;46.28;6.15;;;8.40;99.90;;;;;;5085467;28;20406;-67
2022/02/22 02:29:46;;;;;;;53.50;6.47;;;8.40;99.90;;;;;;5088726;28;20821;-66
2022/02/22 02:32:11;;;;;;;44.67;5.57;;;8.40;99.90;;;;;;5085133;28;20413;-66
2022/02/22 02:34:37;;;;;;;44.73;5.87;;;8.40;99.90;;;;;;5087534;28;20932;-66
2022/02/22 02:37:03;;;;;;;47.28;5.93;;;8.40;99.90;;;;;;5083514;28;20418;-66
2022/02/22 02:39:28;;;;;;;49.20;6.03;;;8.40;99.90;;;;;;5086438;28;20410;-67
2022/02/22 02:41:54;;;;;;;40.78;6.00;;;8.40;99.90;;;;;;5088315;28;20413;-67
2022/02/22 02:44:21;;;;;;;49.77;5.90;;;8.40;99.90;;;;;;5087526;28;20954;-64
2022/02/22 02:46:48;;;;;;;39.30;5.60;;;8.50;99.90;;;;;;5086434;28;20406;-65
2022/02/22 02:49:15;;;;;;;46.90;5.82;;;8.40;99.90;;;;;;5086003;28;20421;-66
2022/02/22 02:51:41;;;;;;;43.00;5.70;;;8.50;99.90;;;;;;5084069;28;20754;-66
2022/02/22 02:54:08;;;;;;;41.25;5.85;;;8.50;99.90;;;;;;5090259;28;20398;-66
2022/02/22 02:56:34;;;;;;;51.38;5.72;;;8.50;99.90;;;;;;5089380;28;20418;-65
2022/02/22 02:59:02;;;;;;;44.60;5.85;;;8.50;99.90;;;;;;5092378;28;20474;-67
2022/02/22 03:01:29;;;;;;;44.78;5.80;;;8.40;99.90;;;;;;5089625;28;20539;-67
2022/02/22 03:03:55;;;;;;;37.35;5.45;;;8.50;99.90;;;;;;5091588;28;20803;-67
2022/02/22 03:06:21;;;;;;;45.57;5.60;;;8.40;99.90;;;;;;5090210;28;20495;-67
2022/02/22 03:08:47;;;;;;;47.58;5.88;;;8.50;99.90;;;;;;5091560;28;20394;-67
2022/02/22 03:11:13;;;;;;;39.85;5.13;;;8.50;99.90;;;;;;5090043;28;20409;-66
2022/02/22 03:13:39;;;;;;;37.85;5.82;;;8.50;99.90;;;;;;5092369;28;20405;-66
2022/02/22 03:16:06;;;;;;;42.85;5.30;;;8.40;99.90;;;;;;5088601;28;20405;-66
2022/02/22 03:18:32;;;;;;;42.10;5.43;;;8.50;99.90;;;;;;5073576;28;20412;-66
2022/02/22 03:20:57;;;;;;;46.00;5.67;;;8.50;99.90;;;;;;5090422;28;20393;-67
2022/02/22 03:23:23;;;;;;;38.63;5.53;;;8.50;99.90;;;;;;5090488;28;20411;-66
2022/02/22 03:25:50;;;;;;;42.20;5.77;;;8.50;99.90;;;;;;5071763;28;20422;-66
2022/02/22 03:28:16;;;;;;;44.53;5.97;;;8.50;99.90;;;;;;5090139;28;20406;-66
2022/02/22 03:30:42;;;;;;;37.08;5.70;;;8.50;99.90;;;;;;5089478;28;20424;-65
2022/02/22 03:33:08;;;;;;;41.95;5.38;;;8.50;99.90;;;;;;5090434;28;20863;-67
2022/02/22 03:35:35;;;;;;;42.00;5.40;;;8.50;99.90;;;;;;5090069;28;20420;-67
2022/02/22 03:38:01;;;;;;;47.22;5.22;;;8.50;99.90;;;;;;5091688;28;20460;-67
2022/02/22 03:40:27;;;;;;;36.90;5.13;;;8.50;99.90;;;;;;5088229;28;20439;-65
2022/02/22 03:42:53;;;;;;;39.05;4.57;;;8.40;99.90;;;;;;5085733;28;20441;-67
2022/02/22 03:45:18;;;;;;;40.40;4.72;;;8.50;99.90;;;;;;5087717;28;20407;-66
2022/02/22 03:47:44;;;;;;;39.45;4.68;;;8.50;99.90;;;;;;5089677;28;20902;-65
2022/02/22 03:50:11;;;;;;;38.95;4.97;;;8.50;99.90;;;;;;5088826;28;20497;-67
2022/02/22 03:52:37;;;;;;;38.60;5.53;;;8.50;99.90;;;;;;5090450;28;20410;-66
2022/02/22 03:55:04;;;;;;;34.60;5.13;;;8.50;99.90;;;;;;5090399;28;20412;-66
2022/02/22 03:57:30;;;;;;;41.85;5.15;;;8.40;99.90;;;;;;5089407;28;20445;-66
2022/02/22 03:59:56;;;;;;;37.50;4.40;;;8.40;99.90;;;;;;5091330;28;20421;-68
2022/02/22 04:02:22;;;;;;;41.40;4.85;;;8.40;99.90;;;;;;5088792;28;20419;-66
2022/02/22 04:04:47;;;;;;;34.30;4.80;;;8.50;99.90;;;;;;5070861;28;20455;-68
2022/02/22 04:07:13;;;;;;;37.50;4.70;;;8.40;99.90;;;;;;5087428;28;20402;-66
2022/02/22 04:09:39;;;;;;;36.20;4.47;;;8.50;99.90;;;;;;5072170;28;20404;-67
2022/02/22 04:12:05;;;;;;;30.70;4.50;;;8.40;99.90;;;;;;5087701;28;20418;-66
2022/02/22 04:14:30;;;;;;;32.40;4.88;;;8.40;99.90;;;;;;5090973;28;20755;-66
2022/02/22 04:16:56;;;;;;;34.87;4.57;;;8.40;99.90;;;;;;5089064;28;20414;-67
2022/02/22 04:19:22;;;;;;;36.28;4.78;;;8.40;99.90;;;;;;5090880;28;20405;-67
2022/02/22 04:21:48;;;;;;;39.40;4.47;;;8.40;99.90;;;;;;5088675;28;20413;-66
2022/02/22 04:24:14;;;;;;;38.93;4.70;;;8.40;99.90;;;;;;5072821;28;20774;-67
2022/02/22 04:26:39;;;;;;;43.03;4.80;;;8.40;99.90;;;;;;5087970;28;20906;-66
2022/02/22 04:29:05;;;;;;;34.93;4.90;;;8.40;99.90;;;;;;5089545;28;20493;-66
2022/02/22 04:31:38;;;;;;;34.40;4.85;;;8.40;99.90;;;;;;5087382;28;20409;-67
2022/02/22 04:34:04;;;;;;;37.25;5.40;;;8.40;99.90;;;;;;5087732;28;20443;-67
2022/02/22 04:36:30;;;;;;;35.10;4.33;;;8.40;99.90;;;;;;5087447;28;20506;-66
2022/02/22 04:38:56;;;;;;;32.70;4.20;;;8.40;99.90;;;;;;5089915;28;20414;-66
2022/02/22 04:41:21;;;;;;;34.73;4.30;;;8.40;99.90;;;;;;5085840;28;20398;-67
2022/02/22 04:43:47;;;;;;;30.83;4.40;;;8.40;99.90;;;;;;5070745;28;20884;-67
2022/02/22 04:46:12;;;;;;;35.73;4.37;;;8.40;99.90;;;;;;5083822;28;20417;-66
2022/02/22 04:48:38;;;;;;;39.70;4.97;;;8.40;99.90;;;;;;5087727;28;20468;-66
2022/02/22 04:51:04;;;;;;;32.78;4.35;;;8.40;99.90;;;;;;5088459;28;20922;-68
2022/02/22 04:53:29;;;;;;;38.83;5.27;;;8.40;99.90;;;;;;5071129;28;20422;-66
2022/02/22 04:55:55;;;;;;;29.35;4.20;;;8.40;99.90;;;;;;5088100;28;20905;-67
2022/02/22 04:58:20;;;;;;;28.10;3.72;;;8.40;99.90;;;;;;5089815;28;20414;-66
2022/02/22 05:00:47;;;;;;;33.33;4.43;;;8.50;99.90;;;;;;5069584;28;21267;-67
2022/02/22 05:03:13;;;;;;;29.35;4.45;;;8.40;99.90;;;;;;5087534;28;20398;-67
2022/02/22 05:05:39;;;;;;;31.67;4.40;;;8.40;99.90;;;;;;5087736;28;20414;-66
2022/02/22 05:08:05;;;;;;;34.10;4.55;;;8.40;99.90;;;;;;5071698;28;20591;-65
2022/02/22 05:10:31;;;;;;;29.00;4.03;;;8.40;99.90;;;;;;5070076;28;20905;-67
2022/02/22 05:12:56;;;;;;;34.55;4.07;;;8.40;99.90;;;;;;5089999;28;20409;-66
2022/02/22 05:15:22;;;;;;;30.15;4.40;;;8.40;99.90;;;;;;5088536;28;20500;-66
2022/02/22 05:17:48;;;;;;;34.07;4.40;;;8.40;99.90;;;;;;5087314;28;20420;-68
2022/02/22 05:20:13;;;;;;;30.13;4.22;;;8.40;99.90;;;;;;5087361;28;20766;-67
2022/02/22 05:22:44;;;;;;;33.63;4.43;;;8.40;99.90;;;;;;5086124;28;20503;-69
2022/02/22 05:25:12;;;;;;;32.47;4.25;;;8.40;99.90;;;;;;5085184;28;20458;-68
2022/02/22 05:27:39;;;;;;;28.08;4.25;;;8.40;99.90;;;;;;5089309;28;20401;-68
2022/02/22 05:30:05;;;;;;;35.15;4.03;;;8.30;99.90;;;;;;5102530;27;20443;-67
2022/02/22 05:32:31;;;;;;;29.30;4.30;;;8.40;99.90;;;;;;5071038;28;20505;-67
2022/02/22 05:34:58;;;;;;;31.05;4.30;;;8.40;99.90;;;;;;5088734;28;20955;-68
2022/02/22 05:37:25;;;;;;;37.45;4.25;;;8.40;99.90;;;;;;5088690;28;20417;-69
2022/02/22 05:39:52;;;;;;;28.23;4.20;;;8.40;99.90;;;;;;5069413;28;20417;-66
2022/02/22 05:42:18;;;;;;;32.00;4.05;;;8.40;99.90;;;;;;5086557;28;20417;-66
2022/02/22 05:44:43;;;;;;;32.80;4.63;;;8.40;99.90;;;;;;5089332;28;20398;-66
2022/02/22 05:47:09;;;;;;;27.83;4.22;;;8.40;99.90;;;;;;5085611;28;20950;-65
2022/02/22 05:49:34;;;;;;;39.03;4.73;;;8.30;99.90;;;;;;5087713;28;20445;-68
2022/02/22 05:52:00;;;;;;;26.83;4.15;;;8.30;99.90;;;;;;5086965;28;20432;-65
2022/02/22 05:54:26;;;;;;;31.20;4.22;;;8.30;99.90;;;;;;5089154;28;20819;-66
2022/02/22 05:56:51;;;;;;;32.90;4.13;;;8.30;99.90;;;;;;5085614;28;20442;-66
2022/02/22 05:59:17;;;;;;;30.73;3.95;;;8.30;99.90;;;;;;5068902;28;20406;-63
2022/02/22 06:01:43;;;;;;;34.00;4.32;;;8.30;99.90;;;;;;5085429;28;20410;-67
2022/02/22 06:04:11;;;;;;;34.17;4.72;;;8.30;99.90;;;;;;5087127;28;20405;-65
2022/02/22 06:06:38;;;;;;;32.28;4.28;;;8.30;99.90;;;;;;5084210;28;20405;-67
2022/02/22 06:09:04;;;;;;;28.80;3.92;;;8.30;99.90;;;;;;5087041;28;20442;-66
2022/02/22 06:11:29;;;;;;;33.45;4.40;;;8.30;99.90;;;;;;5085959;28;20507;-68
2022/02/22 06:13:55;;;;;;;28.07;4.20;;;8.30;99.90;;;;;;5069577;28;20460;-67
2022/02/22 06:16:20;;;;;;;39.47;5.18;;;8.30;99.90;;;;;;5085429;28;20417;-66
2022/02/22 06:18:46;;;;;;;33.37;4.33;;;8.30;99.90;;;;;;5087008;28;20500;-68
2022/02/22 06:21:12;;;;;;;36.10;4.88;;;8.30;99.90;;;;;;5086118;28;20439;-66
2022/02/22 06:23:37;;;;;;;38.67;5.23;;;8.20;99.90;;;;;;5068076;28;20406;-67
2022/02/22 06:26:03;;;;;;;36.53;4.75;;;8.30;99.90;;;;;;5067855;28;20767;-68
2022/02/22 06:28:29;;;;;;;38.72;5.60;;;8.30;99.90;;;;;;5087533;28;20486;-67
2022/02/22 06:30:54;;;;;;;34.77;5.10;;;8.30;99.90;;;;;;5066702;28;20751;-66
2022/02/22 06:33:20;;;;;;;46.17;6.20;;;8.30;99.90;;;;;;5090808;28;20488;-66
2022/02/22 06:35:45;;;;;;;45.63;6.00;;;8.30;99.90;;;;;;5084916;28;20427;-66
2022/02/22 06:38:11;;;;;;;45.67;6.38;;;8.30;99.90;;;;;;5086522;28;20433;-65
2022/02/22 06:40:38;;;;;;;48.90;6.68;;;8.30;99.90;;;;;;5084779;28;21296;-67
2022/02/22 06:43:04;;;;;;;45.33;6.07;;;8.30;99.90;;;;;;5087707;28;20420;-66
2022/02/22 06:45:30;;;;;;;46.83;6.78;;;8.30;99.90;;;;;;5085364;28;20863;-68
2022/02/22 06:47:55;;;;;;;50.17;7.07;;;8.30;99.90;;;;;;5085223;28;20398;-66
2022/02/22 06:50:22;;;;;;;52.00;6.70;;;8.30;99.90;;;;;;5085670;28;21062;-68
2022/02/22 06:52:48;;;;;;;43.92;6.60;;;8.30;99.90;;;;;;5079067;28;20413;-68
2022/02/22 06:55:15;;;;;;;54.17;7.75;;;8.40;99.90;;;;;;5087265;28;20776;-65
2022/02/22 06:57:42;;;;;;;55.33;7.55;;;8.40;99.90;;;;;;5086837;28;20418;-67
2022/02/22 07:00:12;;;;;;;47.13;6.97;;;8.40;99.90;;;;;;5085941;28;20412;-66
2022/02/22 07:02:40;;;;;;;55.70;7.50;;;8.40;99.90;;;;;;5085621;28;20453;-67
2022/02/22 07:05:08;;;;;;;47.10;6.95;;;8.40;99.90;;;;;;5086861;28;21021;-66
2022/02/22 07:07:34;;;;;;;48.60;6.53;;;8.40;99.90;;;;;;5088432;28;20824;-65
2022/02/22 07:09:59;;;;;;;45.20;6.75;;;8.50;99.90;;;;;;5096339;28;20489;-67
2022/02/22 07:12:25;;;;;;;48.40;7.40;;;8.50;99.90;;;;;;5086656;28;20397;-65
2022/02/22 07:14:51;;;;;;;51.78;7.18;;;8.50;99.90;;;;;;5086681;28;20397;-68
2022/02/22 07:17:16;;;;;;;54.10;7.73;;;8.50;99.90;;;;;;5087028;28;20418;-65
2022/02/22 07:19:42;;;;;;;51.15;7.15;;;8.50;99.90;;;;;;5086183;28;20407;-67
2022/02/22 07:22:08;;;;;;;55.00;7.33;;;8.50;99.90;;;;;;5086256;28;20433;-66
2022/02/22 07:24:33;;;;;;;52.88;7.45;;;8.60;99.90;;;;;;5085643;28;21625;-66
2022/02/22 07:26:59;;;;;;;49.60;7.53;;;8.50;99.90;;;;;;5086987;28;20901;-66
2022/02/22 07:29:25;;;;;;;50.77;6.60;;;8.60;99.90;;;;;;5086521;28;20773;-66
2022/02/22 07:31:50;;;;;;;58.42;7.47;;;8.60;99.90;;;;;;5087108;28;20501;-65
2022/02/22 07:34:16;;;;;;;51.03;7.10;;;8.60;99.90;;;;;;5087247;28;20420;-68
2022/02/22 07:36:42;;;;;;;50.00;7.03;;;8.60;99.90;;;;;;5063439;28;20420;-68
2022/02/22 07:39:08;;;;;;;56.00;7.50;;;8.60;99.90;;;;;;5065311;28;20465;-66
2022/02/22 07:41:33;;;;;;;50.95;8.20;;;8.60;99.90;;;;;;5065485;28;20502;-65
2022/02/22 07:43:59;;;;;;;49.13;7.40;;;8.70;99.90;;;;;;5070694;28;20876;-66
2022/02/22 07:46:25;;;;;;;46.60;7.55;;;8.70;99.90;;;;;;5076696;28;20400;-67
2022/02/22 07:48:51;;;;;;;51.90;7.32;;;8.70;99.90;;;;;;5069745;28;20896;-69
2022/02/22 07:51:16;;;;;;;57.60;7.35;;;8.80;99.90;;;;;;5068452;28;20484;-65
2022/02/22 07:53:48;;;;;;;51.83;7.17;;;8.80;99.90;;;;;;5069652;28;20442;-68
2022/02/22 07:56:15;;;;;;;48.35;7.60;;;8.80;99.90;;;;;;5067781;28;20415;-68
2022/02/22 07:58:41;;;;;;;55.20;7.63;;;8.80;99.90;;;;;;5070154;28;20420;-67
2022/02/22 08:01:08;;;;;;;48.00;6.68;;;8.80;99.90;;;;;;5070091;28;20442;-63
2022/02/22 08:03:34;;;;;;;49.13;6.97;;;8.90;99.90;;;;;;5068558;28;20399;-66
2022/02/22 08:06:00;;;;;;;43.90;6.95;;;8.90;99.90;;;;;;5070081;28;20411;-67
2022/02/22 08:08:26;;;;;;;60.87;7.13;;;8.90;99.90;;;;;;5067447;28;20825;-68
2022/02/22 08:10:51;;;;;;;53.30;7.57;;;9.00;99.90;;;;;;5064883;28;20410;-68
2022/02/22 08:13:17;;;;;;;54.85;7.00;;;9.00;99.90;;;;;;5072006;28;20225;-69
2022/02/22 08:15:43;;;;;;;48.13;5.85;;;8.70;99.90;;;;;;5069799;28;20175;-67
2022/02/22 08:18:09;;;;;;;54.30;7.68;;;8.40;99.90;;;;;;5071099;28;20209;-68
2022/02/22 08:20:34;;;;;;;41.35;6.68;;;8.20;99.90;;;;;;5070518;28;20183;-69
2022/02/22 08:23:00;;;;;;;41.70;6.13;;;8.10;99.90;;;;;;5072350;28;20186;-69
2022/02/22 08:25:26;;;;;;;45.13;6.68;;;8.00;99.90;;;;;;5071524;28;20195;-69
2022/02/22 08:27:52;;;;;;;45.13;5.88;;;7.90;99.90;;;;;;5071921;28;20232;-65
2022/02/22 08:30:18;;;;;;;43.05;5.90;;;7.90;99.90;;;;;;5068214;28;20701;-67
2022/02/22 08:32:44;;;;;;;37.92;6.10;;;7.80;99.90;;;;;;5063975;28;20291;-65
2022/02/22 08:35:10;;;;;;;43.55;6.50;;;7.80;99.90;;;;;;5069601;28;20288;-67
2022/02/22 08:37:35;;;;;;;49.33;6.80;;;7.80;99.90;;;;;;5079486;28;20636;-66
2022/02/22 08:40:02;;;;;;;37.42;5.38;;;7.80;99.90;;;;;;5085073;28;20676;-65
2022/02/22 08:42:27;;;;;;;39.40;5.95;;;7.80;99.90;;;;;;5089595;28;20185;-65
2022/02/22 08:44:54;;;;;;;45.00;6.10;;;7.80;99.90;;;;;;5090999;28;20273;-67
2022/02/22 08:47:20;;;;;;;42.63;5.93;;;7.80;99.90;;;;;;5089017;28;20196;-64
2022/02/22 08:49:47;;;;;;;44.50;6.68;;;7.90;99.90;;;;;;5090418;28;20182;-68
2022/02/22 08:52:13;;;;;;;43.25;6.80;;;7.90;99.90;;;;;;5087740;28;20593;-67
2022/02/22 08:54:40;;;;;;;36.58;5.32;;;7.90;99.90;;;;;;5091649;28;20181;-67
2022/02/22 08:57:06;;;;;;;37.45;5.80;;;7.90;99.90;;;;;;5088990;28;20216;-69
2022/02/22 08:59:32;;;;;;;49.65;6.15;;;7.90;99.90;;;;;;5090681;28;20217;-67
2022/02/22 09:01:58;;;;;;;45.10;5.80;;;7.90;99.90;;;;;;5088108;28;20204;-67
2022/02/22 09:04:23;;;;;;;39.40;6.05;;;7.90;99.90;;;;;;5073054;28;20618;-67
2022/02/22 09:06:49;;;;;;;34.40;6.03;;;8.00;99.90;;;;;;5088831;28;20257;-67
2022/02/22 09:09:14;;;;;;;47.00;6.25;;;8.00;99.90;;;;;;5091399;28;20190;-67
2022/02/22 09:11:40;;;;;;;50.53;6.35;;;8.00;99.90;;;;;;5088624;28;20526;-67
2022/02/22 09:14:06;;;;;;;44.70;6.00;;;8.00;99.90;;;;;;5090858;28;20178;-68
2022/02/22 09:16:31;;;;;;;37.83;5.20;;;8.00;99.90;;;;;;5088394;28;20182;-66
2022/02/22 09:18:57;;;;;;;40.88;6.20;;;8.10;99.90;;;;;;5087869;28;20206;-67
2022/02/22 09:21:22;;;;;;;37.85;5.78;;;8.10;99.90;;;;;;5070972;28;20697;-67
2022/02/22 09:23:48;;;;;;;41.92;5.93;;;8.20;99.90;;;;;;5089518;28;20195;-66
2022/02/22 09:26:14;;;;;;;44.70;7.00;;;8.20;99.90;;;;;;5087197;28;20438;-67
2022/02/22 09:28:41;;;;;;;33.97;5.40;;;8.60;99.90;;;;;;5090158;28;20239;-68
2022/02/22 09:31:07;;;;;;;33.35;5.22;;;8.60;99.90;;;;;;5088822;28;20204;-66
2022/02/22 09:33:32;;;;;;;36.83;5.40;;;8.50;99.90;;;;;;5090512;28;20190;-66
2022/02/22 09:35:58;;;;;;;37.85;5.57;;;8.40;99.90;;;;;;5088556;28;20189;-67
2022/02/22 09:38:24;;;;;;;29.88;4.60;;;8.40;99.90;;;;;;5090569;28;20655;-70
2022/02/22 09:40:49;;;;;;;35.72;5.43;;;8.40;99.90;;;;;;5088889;28;20189;-67
2022/02/22 09:43:16;;;;;;;29.42;5.25;;;8.40;99.90;;;;;;5089609;28;20185;-67
2022/02/22 09:45:42;;;;;;;31.25;5.00;;;8.40;99.90;;;;;;5086378;28;20209;-67
2022/02/22 09:48:09;;;;;;;37.42;4.93;;;8.40;99.90;;;;;;5086246;28;20698;-67
2022/02/22 09:50:36;;;;;;;34.13;4.90;;;8.40;99.90;;;;;;5087829;28;20192;-66
2022/02/22 09:53:02;;;;;;;33.15;5.00;;;8.40;99.90;;;;;;5088994;28;20186;-66
2022/02/22 09:55:28;;;;;;;37.45;5.18;;;8.40;99.90;;;;;;5086040;28;20184;-68
2022/02/22 09:57:53;;;;;;;28.17;5.13;;;8.40;99.90;;;;;;5088437;28;20224;-68
2022/02/22 10:00:22;;;;;;;35.75;5.70;;;8.40;99.90;;;;;;5088385;28;20600;-67
2022/02/22 10:02:48;;;;;;;43.40;5.45;;;8.40;99.90;;;;;;5089312;28;20257;-66
2022/02/22 10:05:19;;;;;;;34.97;4.60;;;8.40;99.90;;;;;;5085765;28;20186;-67
2022/02/22 10:07:47;;;;;;;34.65;5.95;;;8.40;99.90;;;;;;5088968;28;20189;-65
2022/02/22 10:10:13;;;;;;;45.28;5.75;;;8.40;99.90;;;;;;5085296;28;20194;-68
2022/02/22 10:12:39;;;;;;;40.47;6.45;;;8.40;99.90;;;;;;5090146;28;20178;-66
2022/02/22 10:15:07;;;;;;;40.92;6.05;;;8.40;99.90;;;;;;5087762;28;20182;-67
2022/02/22 10:17:40;;;;;;;33.83;5.30;;;8.30;99.90;;;;;;5089972;28;20266;-68
2022/02/22 10:20:11;;;;;;;31.10;5.75;;;8.30;99.90;;;;;;5088355;28;20212;-65
2022/02/22 10:22:49;;;;;;;30.35;5.20;;;8.20;99.90;;;;;;5071287;28;20686;-67
2022/02/22 10:25:15;;;;;;;48.97;7.22;;;8.20;99.90;;;;;;5086126;28;20182;-66
2022/02/22 10:27:43;;;;;;;39.25;6.13;;;8.10;99.90;;;;;;5089338;28;20549;-66
2022/02/22 10:30:39;;;;;;;36.05;5.57;;;8.10;99.90;;;;;;5087192;28;20228;-67
2022/02/22 10:33:25;;;;;;;35.40;6.43;;;8.00;99.90;;;;;;5086605;28;20196;-67
2022/02/22 10:35:51;;;;;;;43.80;7.10;;;8.00;99.90;;;;;;5088387;28;20201;-67
2022/02/22 10:38:30;;;;;;;35.10;6.15;;;8.00;99.90;;;;;;5088868;28;20291;-67
2022/02/22 10:41:14;;;;;;;38.83;6.53;;;8.00;99.90;;;;;;5067638;28;20597;-67
2022/02/22 10:43:40;;;;;;;35.17;6.88;;;8.00;99.90;;;;;;5088079;28;20255;-66
2022/02/22 10:46:09;;;;;;;32.10;6.38;;;8.00;99.90;;;;;;5087007;28;20631;-67
2022/02/22 10:48:36;;;;;;;34.20;6.65;;;8.00;99.90;;;;;;5086706;28;20186;-68
2022/02/22 10:51:05;;;;;;;30.63;6.40;;;8.00;99.90;;;;;;5087649;28;20186;-67
2022/02/22 10:53:34;;;;;;;31.98;7.07;;;8.00;99.90;;;;;;5087704;28;20402;-66
2022/02/22 10:56:01;;;;;;;34.70;7.70;;;8.40;99.90;;;;;;5085580;28;20414;-69
2022/02/22 10:58:27;;;;;;;37.35;7.57;;;8.80;99.90;;;;;;5095826;28;20804;-67
2022/02/22 11:00:53;;;;;;;44.47;8.80;;;9.00;99.90;;;;;;5086610;28;20424;-67
2022/02/22 11:03:19;;;;;;;37.50;8.10;;;9.10;99.90;;;;;;5087082;28;20418;-67
2022/02/22 11:05:48;;;;;;;44.33;8.60;;;9.20;99.90;;;;;;5085131;28;20188;-68
2022/02/22 11:08:14;;;;;;;44.75;8.77;;;9.00;99.90;;;;;;5089720;28;20201;-67
2022/02/22 11:10:49;;;;;;;46.47;9.18;;;8.80;99.90;;;;;;5087643;28;20251;-68
2022/02/22 11:13:15;;;;;;;46.38;8.63;;;8.70;99.90;;;;;;5089304;28;20571;-69
2022/02/22 11:15:41;;;;;;;51.67;9.55;;;8.60;99.90;;;;;;5089183;28;20186;-69
2022/02/22 11:18:21;;;;;;;57.38;8.57;;;8.60;99.90;;;;;;5089419;28;20258;-68
2022/02/22 11:20:47;;;;;;;48.97;9.88;;;8.60;99.90;;;;;;5090371;28;20181;-67
2022/02/22 11:23:24;;;;;;;50.53;9.40;;;8.60;99.90;;;;;;5093521;28;20716;-70
2022/02/22 11:25:51;;;;;;;53.50;9.55;;;8.60;99.90;;;;;;5090450;28;20189;-70
2022/02/22 11:28:17;;;;;;;47.58;9.63;;;8.60;99.90;;;;;;5093378;28;20224;-69
2022/02/22 11:30:43;;;;;;;56.03;9.45;;;8.60;99.90;;;;;;5089780;28;20708;-68
2022/02/22 11:33:15;;;;;;;52.88;9.73;;;8.70;99.90;;;;;;5093355;28;20654;-68
2022/02/22 11:35:48;;;;;;;56.83;8.68;;;8.70;99.90;;;;;;5088111;28;20186;-67
2022/02/22 11:38:15;;;;;;;58.17;9.15;;;8.80;99.90;;;;;;5092745;28;20229;-68
2022/02/22 11:40:42;;;;;;;52.70;8.30;;;8.80;99.90;;;;;;5091433;28;20212;-70
2022/02/22 11:43:13;;;;;;;39.90;8.02;;;8.90;99.90;;;;;;5093072;28;20202;-67
2022/02/22 11:45:50;;;;;;;39.45;6.93;;;8.90;99.90;;;;;;5089334;28;20178;-67
2022/02/22 11:48:26;;;;;;;43.58;7.82;;;8.90;99.90;;;;;;5090346;28;20193;-67
2022/02/22 11:50:56;;;;;;;45.63;9.15;;;9.00;99.90;;;;;;5091117;28;20713;-71
2022/02/22 11:53:25;;;;;;;35.78;7.68;;;9.00;99.90;;;;;;5092831;28;20559;-68
2022/02/22 11:55:52;;;;;;;46.85;8.30;;;9.00;99.90;;;;;;5090538;28;20196;-68
2022/02/22 11:58:26;;;;;;;36.65;7.15;;;9.00;99.90;;;;;;5074500;28;20614;-67
2022/02/22 12:00:55;;;;;;;52.03;8.95;;;9.10;99.90;;;;;;5090094;28;20282;-67
2022/02/22 12:03:24;;;;;;;38.85;7.85;;;9.10;99.90;;;;;;5090753;28;20189;-69
2022/02/22 12:05:57;;;;;;;46.63;8.45;;;9.20;99.90;;;;;;5086812;28;20631;-66
2022/02/22 12:08:28;;;;;;;42.38;7.65;;;9.20;99.90;;;;;;5090908;28;20197;-65
2022/02/22 12:10:58;;;;;;;41.58;7.55;;;9.20;99.90;;;;;;5090509;28;20896;-67
2022/02/22 12:13:27;;;;;;;32.00;6.10;;;9.30;99.90;;;;;;5092614;28;20674;-68
2022/02/22 12:15:53;;;;;;;39.40;6.55;;;9.40;99.90;;;;;;5089114;28;20194;-67
2022/02/22 12:18:25;;;;;;;37.08;7.18;;;9.40;99.90;;;;;;5091848;28;20574;-67
2022/02/22 12:20:52;;;;;;;38.13;6.72;;;9.40;99.90;;;;;;5089791;28;20201;-65
2022/02/22 12:23:27;;;;;;;28.08;6.82;;;9.40;99.90;;;;;;5090335;28;20273;-68
2022/02/22 12:25:55;;;;;;;31.00;6.95;;;9.50;99.90;;;;;;5088390;28;20177;-71
2022/02/22 12:28:23;;;;;;;35.00;6.30;;;9.50;99.90;;;;;;5073628;28;20194;-69
2022/02/22 12:30:50;;;;;;;34.47;6.72;;;9.50;99.90;;;;;;5068649;28;20199;-69
2022/02/22 12:33:17;;;;;;;31.17;6.65;;;9.50;99.90;;;;;;5090435;28;20589;-68
2022/02/22 12:35:46;;;;;;;29.05;6.95;;;9.60;99.90;;;;;;5090335;28;20215;-68
2022/02/22 12:38:20;;;;;;;38.78;7.53;;;9.60;99.90;;;;;;5073314;28;20213;-69
2022/02/22 12:40:48;;;;;;;29.73;6.78;;;9.60;99.90;;;;;;5089083;28;20211;-69
2022/02/22 12:43:14;;;;;;;38.55;7.75;;;9.60;99.90;;;;;;5071734;28;20229;-66
2022/02/22 12:45:50;;;;;;;35.20;7.32;;;9.50;99.90;;;;;;5089775;28;20641;-72